sensor_id;sensor_type;location;lat;lon;timestamp;temperature;humidity
49549;DHT22;35450;44.518;7.466;2024-01-15T00:01:48;3.80;92.30
49549;DHT22;35450;44.518;7.466;2024-01-15T00:04:52;3.80;92.20
49549;DHT22;35450;44.518;7.466;2024-01-15T00:07:56;3.80;92.50
49549;DHT22;35450;44.518;7.466;2024-01-15T00:11:00;3.70;92.80
49549;DHT22;35450;44.518;7.466;2024-01-15T00:14:04;3.70;92.80
49549;DHT22;35450;44.518;7.466;2024-01-15T00:17:08;3.60;92.60
49549;DHT22;35450;44.518;7.466;2024-01-15T00:20:12;3.50;92.70
49549;DHT22;35450;44.518;7.466;2024-01-15T00:23:16;3.50;92.60
49549;DHT22;35450;44.518;7.466;2024-01-15T00:26:20;3.60;92.80
49549;DHT22;35450;44.518;7.466;2024-01-15T00:29:24;3.70;92.70
49549;DHT22;35450;44.518;7.466;2024-01-15T00:32:28;3.80;92.30
49549;DHT22;35450;44.518;7.466;2024-01-15T00:35:31;3.70;92.70
49549;DHT22;35450;44.518;7.466;2024-01-15T00:38:36;3.80;92.70
49549;DHT22;35450;44.518;7.466;2024-01-15T00:41:40;3.90;92.50
49549;DHT22;35450;44.518;7.466;2024-01-15T00:44:44;3.60;92.50
49549;DHT22;35450;44.518;7.466;2024-01-15T00:47:49;3.50;92.50
49549;DHT22;35450;44.518;7.466;2024-01-15T00:50:52;3.70;92.70
49549;DHT22;35450;44.518;7.466;2024-01-15T00:53:58;3.70;92.40
49549;DHT22;35450;44.518;7.466;2024-01-15T00:57:02;3.60;92.50
49549;DHT22;35450;44.518;7.466;2024-01-15T01:00:07;3.40;92.90
49549;DHT22;35450;44.518;7.466;2024-01-15T01:03:13;3.40;92.90
49549;DHT22;35450;44.518;7.466;2024-01-15T01:06:16;3.50;93.00
49549;DHT22;35450;44.518;7.466;2024-01-15T01:09:20;3.50;93.30
49549;DHT22;35450;44.518;7.466;2024-01-15T01:12:25;3.50;93.10
49549;DHT22;35450;44.518;7.466;2024-01-15T01:15:29;3.40;93.40
49549;DHT22;35450;44.518;7.466;2024-01-15T01:18:32;3.40;93.40
49549;DHT22;35450;44.518;7.466;2024-01-15T01:21:36;3.40;93.50
49549;DHT22;35450;44.518;7.466;2024-01-15T01:24:40;3.40;93.70
49549;DHT22;35450;44.518;7.466;2024-01-15T01:27:45;3.40;93.40
49549;DHT22;35450;44.518;7.466;2024-01-15T01:30:49;3.40;93.50
49549;DHT22;35450;44.518;7.466;2024-01-15T01:33:53;3.40;93.50
49549;DHT22;35450;44.518;7.466;2024-01-15T01:36:57;3.40;93.30
49549;DHT22;35450;44.518;7.466;2024-01-15T01:40:01;3.30;93.00
49549;DHT22;35450;44.518;7.466;2024-01-15T01:43:05;3.40;94.00
49549;DHT22;35450;44.518;7.466;2024-01-15T01:46:09;3.50;93.80
49549;DHT22;35450;44.518;7.466;2024-01-15T01:49:13;3.40;93.30
49549;DHT22;35450;44.518;7.466;2024-01-15T01:52:17;3.50;93.40
49549;DHT22;35450;44.518;7.466;2024-01-15T01:55:24;3.50;93.00
49549;DHT22;35450;44.518;7.466;2024-01-15T01:58:31;3.50;92.90
49549;DHT22;35450;44.518;7.466;2024-01-15T02:01:36;3.40;93.50
49549;DHT22;35450;44.518;7.466;2024-01-15T02:04:40;3.40;94.00
49549;DHT22;35450;44.518;7.466;2024-01-15T02:07:44;3.50;94.00
49549;DHT22;35450;44.518;7.466;2024-01-15T02:10:49;3.50;93.70
49549;DHT22;35450;44.518;7.466;2024-01-15T02:13:53;3.30;94.10
49549;DHT22;35450;44.518;7.466;2024-01-15T02:16:57;3.40;93.70
49549;DHT22;35450;44.518;7.466;2024-01-15T02:20:01;3.40;93.90
49549;DHT22;35450;44.518;7.466;2024-01-15T02:26:13;3.50;93.40
49549;DHT22;35450;44.518;7.466;2024-01-15T02:29:18;3.60;93.50
49549;DHT22;35450;44.518;7.466;2024-01-15T02:32:22;3.60;93.80
49549;DHT22;35450;44.518;7.466;2024-01-15T02:35:26;3.50;93.70
49549;DHT22;35450;44.518;7.466;2024-01-15T02:38:30;3.70;93.20
49549;DHT22;35450;44.518;7.466;2024-01-15T02:41:34;3.60;92.70
49549;DHT22;35450;44.518;7.466;2024-01-15T02:44:38;3.70;93.20
49549;DHT22;35450;44.518;7.466;2024-01-15T02:47:42;3.60;93.40
49549;DHT22;35450;44.518;7.466;2024-01-15T02:50:46;3.50;93.80
49549;DHT22;35450;44.518;7.466;2024-01-15T02:53:50;3.40;94.00
49549;DHT22;35450;44.518;7.466;2024-01-15T02:56:54;3.40;94.40
49549;DHT22;35450;44.518;7.466;2024-01-15T02:59:58;3.40;93.90
49549;DHT22;35450;44.518;7.466;2024-01-15T03:03:02;3.30;93.50
49549;DHT22;35450;44.518;7.466;2024-01-15T03:06:06;3.20;94.30
49549;DHT22;35450;44.518;7.466;2024-01-15T03:09:10;3.30;94.50
49549;DHT22;35450;44.518;7.466;2024-01-15T03:12:14;3.40;94.30
49549;DHT22;35450;44.518;7.466;2024-01-15T03:15:18;3.50;94.20
49549;DHT22;35450;44.518;7.466;2024-01-15T03:18:22;3.50;93.70
49549;DHT22;35450;44.518;7.466;2024-01-15T03:21:26;3.30;94.50
49549;DHT22;35450;44.518;7.466;2024-01-15T03:24:31;3.20;94.60
49549;DHT22;35450;44.518;7.466;2024-01-15T03:27:36;3.20;94.40
49549;DHT22;35450;44.518;7.466;2024-01-15T03:30:40;3.30;94.30
49549;DHT22;35450;44.518;7.466;2024-01-15T03:33:43;3.40;94.30
49549;DHT22;35450;44.518;7.466;2024-01-15T03:36:47;3.50;93.90
49549;DHT22;35450;44.518;7.466;2024-01-15T03:39:51;3.40;93.70
49549;DHT22;35450;44.518;7.466;2024-01-15T03:42:55;3.40;93.40
49549;DHT22;35450;44.518;7.466;2024-01-15T03:45:59;3.30;93.30
49549;DHT22;35450;44.518;7.466;2024-01-15T03:49:03;3.20;94.00
49549;DHT22;35450;44.518;7.466;2024-01-15T03:52:07;3.20;94.10
49549;DHT22;35450;44.518;7.466;2024-01-15T03:55:11;3.20;94.30
49549;DHT22;35450;44.518;7.466;2024-01-15T03:58:15;3.30;93.90
49549;DHT22;35450;44.518;7.466;2024-01-15T04:01:19;3.40;93.90
49549;DHT22;35450;44.518;7.466;2024-01-15T04:04:23;3.20;93.80
49549;DHT22;35450;44.518;7.466;2024-01-15T04:07:27;3.10;94.40
49549;DHT22;35450;44.518;7.466;2024-01-15T04:10:31;3.10;94.50
49549;DHT22;35450;44.518;7.466;2024-01-15T04:13:36;3.40;94.40
49549;DHT22;35450;44.518;7.466;2024-01-15T04:16:40;3.50;94.40
49549;DHT22;35450;44.518;7.466;2024-01-15T04:19:45;3.60;93.70
49549;DHT22;35450;44.518;7.466;2024-01-15T04:22:49;3.60;93.30
49549;DHT22;35450;44.518;7.466;2024-01-15T04:25:53;3.70;93.40
49549;DHT22;35450;44.518;7.466;2024-01-15T04:28:57;3.60;92.90
49549;DHT22;35450;44.518;7.466;2024-01-15T04:32:02;3.60;93.10
49549;DHT22;35450;44.518;7.466;2024-01-15T04:35:06;3.60;93.20
49549;DHT22;35450;44.518;7.466;2024-01-15T04:38:11;3.50;93.60
49549;DHT22;35450;44.518;7.466;2024-01-15T04:41:16;3.40;93.40
49549;DHT22;35450;44.518;7.466;2024-01-15T04:44:20;3.50;92.90
49549;DHT22;35450;44.518;7.466;2024-01-15T04:47:24;3.30;92.60
49549;DHT22;35450;44.518;7.466;2024-01-15T04:50:28;3.10;92.90
49549;DHT22;35450;44.518;7.466;2024-01-15T04:53:34;3.20;93.10
49549;DHT22;35450;44.518;7.466;2024-01-15T04:56:38;3.20;93.20
49549;DHT22;35450;44.518;7.466;2024-01-15T04:59:42;3.30;93.10
49549;DHT22;35450;44.518;7.466;2024-01-15T05:02:47;3.20;93.00
49549;DHT22;35450;44.518;7.466;2024-01-15T05:05:50;3.10;93.40
49549;DHT22;35450;44.518;7.466;2024-01-15T05:08:54;3.00;93.30
49549;DHT22;35450;44.518;7.466;2024-01-15T05:11:58;3.00;93.80
49549;DHT22;35450;44.518;7.466;2024-01-15T05:15:03;3.00;93.50
49549;DHT22;35450;44.518;7.466;2024-01-15T05:18:07;3.20;93.40
49549;DHT22;35450;44.518;7.466;2024-01-15T05:21:11;3.10;93.50
49549;DHT22;35450;44.518;7.466;2024-01-15T05:24:16;3.20;93.80
49549;DHT22;35450;44.518;7.466;2024-01-15T05:27:20;3.20;93.70
49549;DHT22;35450;44.518;7.466;2024-01-15T05:30:24;3.30;93.40
49549;DHT22;35450;44.518;7.466;2024-01-15T05:33:28;3.40;93.20
49549;DHT22;35450;44.518;7.466;2024-01-15T05:36:32;3.20;92.90
49549;DHT22;35450;44.518;7.466;2024-01-15T05:39:36;3.30;93.20
49549;DHT22;35450;44.518;7.466;2024-01-15T05:42:41;3.10;92.70
49549;DHT22;35450;44.518;7.466;2024-01-15T05:45:45;2.90;93.00
49549;DHT22;35450;44.518;7.466;2024-01-15T05:48:49;2.90;93.70
49549;DHT22;35450;44.518;7.466;2024-01-15T05:51:53;2.90;93.90
49549;DHT22;35450;44.518;7.466;2024-01-15T05:54:58;3.00;93.70
49549;DHT22;35450;44.518;7.466;2024-01-15T05:58:02;3.10;93.80
49549;DHT22;35450;44.518;7.466;2024-01-15T06:01:06;3.10;94.00
49549;DHT22;35450;44.518;7.466;2024-01-15T06:04:10;3.20;93.50
49549;DHT22;35450;44.518;7.466;2024-01-15T06:07:14;3.30;93.60
49549;DHT22;35450;44.518;7.466;2024-01-15T06:10:18;3.30;93.10
49549;DHT22;35450;44.518;7.466;2024-01-15T06:13:22;3.30;93.30
49549;DHT22;35450;44.518;7.466;2024-01-15T06:16:26;3.00;93.60
49549;DHT22;35450;44.518;7.466;2024-01-15T06:19:30;3.10;93.60
49549;DHT22;35450;44.518;7.466;2024-01-15T06:22:34;3.10;93.60
49549;DHT22;35450;44.518;7.466;2024-01-15T06:25:40;3.00;93.80
49549;DHT22;35450;44.518;7.466;2024-01-15T06:28:44;3.00;94.40
49549;DHT22;35450;44.518;7.466;2024-01-15T06:31:48;3.00;94.70
49549;DHT22;35450;44.518;7.466;2024-01-15T06:34:52;3.10;94.40
49549;DHT22;35450;44.518;7.466;2024-01-15T06:37:56;3.20;94.30
49549;DHT22;35450;44.518;7.466;2024-01-15T06:41:00;3.20;94.20
49549;DHT22;35450;44.518;7.466;2024-01-15T06:44:05;3.30;94.20
49549;DHT22;35450;44.518;7.466;2024-01-15T06:47:08;3.10;93.50
49549;DHT22;35450;44.518;7.466;2024-01-15T06:50:12;2.90;94.10
49549;DHT22;35450;44.518;7.466;2024-01-15T06:53:16;2.90;94.30
49549;DHT22;35450;44.518;7.466;2024-01-15T06:56:21;3.00;94.30
49549;DHT22;35450;44.518;7.466;2024-01-15T06:59:25;3.10;93.70
49549;DHT22;35450;44.518;7.466;2024-01-15T07:02:29;2.90;93.30
49549;DHT22;35450;44.518;7.466;2024-01-15T07:05:33;2.90;93.20
49549;DHT22;35450;44.518;7.466;2024-01-15T07:08:37;3.10;93.20
49549;DHT22;35450;44.518;7.466;2024-01-15T07:11:44;3.20;93.30
49549;DHT22;35450;44.518;7.466;2024-01-15T07:14:49;3.10;93.10
49549;DHT22;35450;44.518;7.466;2024-01-15T07:17:53;3.10;93.00
49549;DHT22;35450;44.518;7.466;2024-01-15T07:20:57;3.10;92.70
49549;DHT22;35450;44.518;7.466;2024-01-15T07:24:02;3.10;92.90
49549;DHT22;35450;44.518;7.466;2024-01-15T07:27:07;2.80;92.50
49549;DHT22;35450;44.518;7.466;2024-01-15T07:30:14;2.90;92.80
49549;DHT22;35450;44.518;7.466;2024-01-15T07:33:18;3.00;93.40
49549;DHT22;35450;44.518;7.466;2024-01-15T07:36:22;3.00;93.40
49549;DHT22;35450;44.518;7.466;2024-01-15T07:39:26;3.00;92.70
49549;DHT22;35450;44.518;7.466;2024-01-15T07:42:32;3.00;92.90
49549;DHT22;35450;44.518;7.466;2024-01-15T07:45:37;3.20;92.90
49549;DHT22;35450;44.518;7.466;2024-01-15T07:48:41;3.20;92.90
49549;DHT22;35450;44.518;7.466;2024-01-15T07:51:45;3.30;92.70
49549;DHT22;35450;44.518;7.466;2024-01-15T07:54:49;3.30;92.70
49549;DHT22;35450;44.518;7.466;2024-01-15T07:57:53;3.20;92.70
49549;DHT22;35450;44.518;7.466;2024-01-15T08:01:02;3.30;92.90
49549;DHT22;35450;44.518;7.466;2024-01-15T08:04:06;3.40;92.90
49549;DHT22;35450;44.518;7.466;2024-01-15T08:07:13;3.40;93.00
49549;DHT22;35450;44.518;7.466;2024-01-15T08:10:17;3.50;93.10
49549;DHT22;35450;44.518;7.466;2024-01-15T08:13:21;3.60;93.00
49549;DHT22;35450;44.518;7.466;2024-01-15T08:16:25;3.70;93.00
49549;DHT22;35450;44.518;7.466;2024-01-15T08:19:30;3.90;93.00
49549;DHT22;35450;44.518;7.466;2024-01-15T08:22:34;4.00;92.90
49549;DHT22;35450;44.518;7.466;2024-01-15T08:25:38;4.20;92.80
49549;DHT22;35450;44.518;7.466;2024-01-15T08:28:42;4.20;92.60
49549;DHT22;35450;44.518;7.466;2024-01-15T08:31:46;4.20;92.50
49549;DHT22;35450;44.518;7.466;2024-01-15T08:34:50;4.20;92.70
49549;DHT22;35450;44.518;7.466;2024-01-15T08:37:56;4.20;92.70
49549;DHT22;35450;44.518;7.466;2024-01-15T08:41:02;4.30;92.50
49549;DHT22;35450;44.518;7.466;2024-01-15T08:44:06;4.40;92.10
49549;DHT22;35450;44.518;7.466;2024-01-15T08:47:10;4.40;92.10
49549;DHT22;35450;44.518;7.466;2024-01-15T08:50:14;4.30;92.10
49549;DHT22;35450;44.518;7.466;2024-01-15T08:53:19;4.40;92.30
49549;DHT22;35450;44.518;7.466;2024-01-15T08:56:23;4.30;92.40
49549;DHT22;35450;44.518;7.466;2024-01-15T08:59:27;4.40;92.60
49549;DHT22;35450;44.518;7.466;2024-01-15T09:02:30;4.40;92.40
49549;DHT22;35450;44.518;7.466;2024-01-15T09:05:35;4.40;92.60
49549;DHT22;35450;44.518;7.466;2024-01-15T09:08:40;4.50;92.50
49549;DHT22;35450;44.518;7.466;2024-01-15T09:11:45;4.60;92.40
49549;DHT22;35450;44.518;7.466;2024-01-15T09:14:49;4.50;92.20
49549;DHT22;35450;44.518;7.466;2024-01-15T09:17:54;4.60;92.00
49549;DHT22;35450;44.518;7.466;2024-01-15T09:20:58;4.60;92.00
49549;DHT22;35450;44.518;7.466;2024-01-15T09:24:03;4.70;92.00
49549;DHT22;35450;44.518;7.466;2024-01-15T09:27:07;4.70;92.10
49549;DHT22;35450;44.518;7.466;2024-01-15T09:30:11;4.70;92.20
49549;DHT22;35450;44.518;7.466;2024-01-15T09:33:15;4.70;92.20
49549;DHT22;35450;44.518;7.466;2024-01-15T09:36:19;4.80;91.80
49549;DHT22;35450;44.518;7.466;2024-01-15T09:39:23;4.90;91.80
49549;DHT22;35450;44.518;7.466;2024-01-15T09:42:28;5.00;91.80
49549;DHT22;35450;44.518;7.466;2024-01-15T09:45:32;5.00;92.00
49549;DHT22;35450;44.518;7.466;2024-01-15T09:48:36;5.10;92.40
49549;DHT22;35450;44.518;7.466;2024-01-15T09:51:42;5.10;92.70
49549;DHT22;35450;44.518;7.466;2024-01-15T09:54:47;5.10;92.60
49549;DHT22;35450;44.518;7.466;2024-01-15T09:57:52;5.20;92.70
49549;DHT22;35450;44.518;7.466;2024-01-15T10:00:59;5.30;92.60
49549;DHT22;35450;44.518;7.466;2024-01-15T10:04:04;5.20;92.60
49549;DHT22;35450;44.518;7.466;2024-01-15T10:07:08;5.20;92.90
49549;DHT22;35450;44.518;7.466;2024-01-15T10:10:13;5.30;92.90
49549;DHT22;35450;44.518;7.466;2024-01-15T10:13:17;5.30;93.20
49549;DHT22;35450;44.518;7.466;2024-01-15T10:16:22;5.40;93.40
49549;DHT22;35450;44.518;7.466;2024-01-15T10:19:26;5.40;93.50
49549;DHT22;35450;44.518;7.466;2024-01-15T10:22:31;5.40;93.60
49549;DHT22;35450;44.518;7.466;2024-01-15T10:25:35;5.40;94.10
49549;DHT22;35450;44.518;7.466;2024-01-15T10:28:40;5.50;94.50
49549;DHT22;35450;44.518;7.466;2024-01-15T10:31:46;5.40;94.30
49549;DHT22;35450;44.518;7.466;2024-01-15T10:34:52;5.30;94.30
49549;DHT22;35450;44.518;7.466;2024-01-15T10:37:56;5.40;94.30
49549;DHT22;35450;44.518;7.466;2024-01-15T10:41:00;5.50;94.50
49549;DHT22;35450;44.518;7.466;2024-01-15T10:44:04;5.40;94.70
49549;DHT22;35450;44.518;7.466;2024-01-15T10:47:09;5.40;94.70
49549;DHT22;35450;44.518;7.466;2024-01-15T10:50:14;5.40;94.90
49549;DHT22;35450;44.518;7.466;2024-01-15T10:53:17;5.40;95.00
49549;DHT22;35450;44.518;7.466;2024-01-15T10:56:22;5.50;95.00
49549;DHT22;35450;44.518;7.466;2024-01-15T10:59:26;5.60;95.00
49549;DHT22;35450;44.518;7.466;2024-01-15T11:02:35;5.60;94.80
49549;DHT22;35450;44.518;7.466;2024-01-15T11:05:42;5.70;94.50
49549;DHT22;35450;44.518;7.466;2024-01-15T11:08:50;5.80;94.40
49549;DHT22;35450;44.518;7.466;2024-01-15T11:12:11;5.80;94.20
49549;DHT22;35450;44.518;7.466;2024-01-15T11:15:19;5.80;94.10
49549;DHT22;35450;44.518;7.466;2024-01-15T11:18:42;5.90;94.00
49549;DHT22;35450;44.518;7.466;2024-01-15T11:21:46;5.90;93.70
49549;DHT22;35450;44.518;7.466;2024-01-15T11:24:50;5.90;93.70
49549;DHT22;35450;44.518;7.466;2024-01-15T11:27:55;5.90;93.90
49549;DHT22;35450;44.518;7.466;2024-01-15T11:30:59;6.00;93.90
49549;DHT22;35450;44.518;7.466;2024-01-15T11:34:03;6.00;93.70
49549;DHT22;35450;44.518;7.466;2024-01-15T11:37:07;6.00;93.80
49549;DHT22;35450;44.518;7.466;2024-01-15T11:40:12;6.10;93.90
49549;DHT22;35450;44.518;7.466;2024-01-15T11:43:18;6.10;93.80
49549;DHT22;35450;44.518;7.466;2024-01-15T11:46:28;6.00;93.70
49549;DHT22;35450;44.518;7.466;2024-01-15T11:49:58;6.10;93.80
49549;DHT22;35450;44.518;7.466;2024-01-15T11:53:06;6.20;93.90
49549;DHT22;35450;44.518;7.466;2024-01-15T11:56:18;6.20;93.70
49549;DHT22;35450;44.518;7.466;2024-01-15T11:59:25;6.20;93.70
49549;DHT22;35450;44.518;7.466;2024-01-15T12:02:29;6.30;93.70
49549;DHT22;35450;44.518;7.466;2024-01-15T12:05:33;6.30;94.10
49549;DHT22;35450;44.518;7.466;2024-01-15T12:08:40;6.30;94.30
49549;DHT22;35450;44.518;7.466;2024-01-15T12:11:50;6.40;94.20
49549;DHT22;35450;44.518;7.466;2024-01-15T12:14:55;6.40;94.20
49549;DHT22;35450;44.518;7.466;2024-01-15T12:18:01;6.40;94.20
49549;DHT22;35450;44.518;7.466;2024-01-15T12:21:09;6.50;94.20
49549;DHT22;35450;44.518;7.466;2024-01-15T12:24:13;6.50;94.10
49549;DHT22;35450;44.518;7.466;2024-01-15T12:27:17;6.50;94.10
49549;DHT22;35450;44.518;7.466;2024-01-15T12:30:22;6.60;94.10
49549;DHT22;35450;44.518;7.466;2024-01-15T12:33:27;6.50;94.00
49549;DHT22;35450;44.518;7.466;2024-01-15T12:36:31;6.60;93.90
49549;DHT22;35450;44.518;7.466;2024-01-15T12:39:35;6.60;93.90
49549;DHT22;35450;44.518;7.466;2024-01-15T12:42:40;6.60;94.10
49549;DHT22;35450;44.518;7.466;2024-01-15T12:45:44;6.60;94.00
49549;DHT22;35450;44.518;7.466;2024-01-15T12:48:48;6.70;94.00
49549;DHT22;35450;44.518;7.466;2024-01-15T12:51:53;6.70;93.90
49549;DHT22;35450;44.518;7.466;2024-01-15T12:54:58;6.70;93.90
49549;DHT22;35450;44.518;7.466;2024-01-15T12:58:02;6.70;93.90
49549;DHT22;35450;44.518;7.466;2024-01-15T13:01:06;6.80;94.00
49549;DHT22;35450;44.518;7.466;2024-01-15T13:04:10;6.80;93.90
49549;DHT22;35450;44.518;7.466;2024-01-15T13:07:14;6.80;93.80
49549;DHT22;35450;44.518;7.466;2024-01-15T13:10:18;6.90;93.90
49549;DHT22;35450;44.518;7.466;2024-01-15T13:13:22;6.90;94.10
49549;DHT22;35450;44.518;7.466;2024-01-15T13:16:26;7.00;94.10
49549;DHT22;35450;44.518;7.466;2024-01-15T13:19:33;7.00;94.10
49549;DHT22;35450;44.518;7.466;2024-01-15T13:22:37;7.00;94.10
49549;DHT22;35450;44.518;7.466;2024-01-15T13:25:43;7.10;94.10
49549;DHT22;35450;44.518;7.466;2024-01-15T13:28:47;7.10;94.00
49549;DHT22;35450;44.518;7.466;2024-01-15T13:31:51;7.10;94.00
49549;DHT22;35450;44.518;7.466;2024-01-15T13:35:00;7.10;94.00
49549;DHT22;35450;44.518;7.466;2024-01-15T13:38:04;7.10;94.10
49549;DHT22;35450;44.518;7.466;2024-01-15T13:41:08;7.10;94.30
49549;DHT22;35450;44.518;7.466;2024-01-15T13:44:12;7.10;94.20
49549;DHT22;35450;44.518;7.466;2024-01-15T13:47:16;7.10;94.30
49549;DHT22;35450;44.518;7.466;2024-01-15T13:50:20;7.20;94.30
49549;DHT22;35450;44.518;7.466;2024-01-15T13:53:24;7.30;94.20
49549;DHT22;35450;44.518;7.466;2024-01-15T13:56:29;7.30;94.20
49549;DHT22;35450;44.518;7.466;2024-01-15T13:59:36;7.40;94.10
49549;DHT22;35450;44.518;7.466;2024-01-15T14:02:40;7.30;94.10
49549;DHT22;35450;44.518;7.466;2024-01-15T14:05:44;7.40;94.20
49549;DHT22;35450;44.518;7.466;2024-01-15T14:08:48;7.50;94.50
49549;DHT22;35450;44.518;7.466;2024-01-15T14:11:52;7.50;94.30
49549;DHT22;35450;44.518;7.466;2024-01-15T14:14:56;7.60;94.30
49549;DHT22;35450;44.518;7.466;2024-01-15T14:18:00;7.60;94.10
49549;DHT22;35450;44.518;7.466;2024-01-15T14:21:04;7.60;94.20
49549;DHT22;35450;44.518;7.466;2024-01-15T14:24:08;7.60;94.40
49549;DHT22;35450;44.518;7.466;2024-01-15T14:27:12;7.70;94.50
49549;DHT22;35450;44.518;7.466;2024-01-15T14:30:17;7.80;94.50
49549;DHT22;35450;44.518;7.466;2024-01-15T14:33:22;7.80;94.60
49549;DHT22;35450;44.518;7.466;2024-01-15T14:36:26;7.70;94.70
49549;DHT22;35450;44.518;7.466;2024-01-15T14:39:30;7.80;94.80
49549;DHT22;35450;44.518;7.466;2024-01-15T14:42:37;7.80;94.50
49549;DHT22;35450;44.518;7.466;2024-01-15T14:45:41;7.80;94.80
49549;DHT22;35450;44.518;7.466;2024-01-15T14:48:45;7.90;94.60
49549;DHT22;35450;44.518;7.466;2024-01-15T14:51:50;7.90;94.40
49549;DHT22;35450;44.518;7.466;2024-01-15T14:54:54;7.90;94.50
49549;DHT22;35450;44.518;7.466;2024-01-15T14:57:59;7.90;94.50
49549;DHT22;35450;44.518;7.466;2024-01-15T15:01:03;8.00;94.40
49549;DHT22;35450;44.518;7.466;2024-01-15T15:04:08;8.00;94.20
49549;DHT22;35450;44.518;7.466;2024-01-15T15:07:12;8.00;94.20
49549;DHT22;35450;44.518;7.466;2024-01-15T15:10:17;8.00;94.20
49549;DHT22;35450;44.518;7.466;2024-01-15T15:13:21;8.00;94.10
49549;DHT22;35450;44.518;7.466;2024-01-15T15:16:27;8.00;94.10
49549;DHT22;35450;44.518;7.466;2024-01-15T15:19:32;8.00;94.20
49549;DHT22;35450;44.518;7.466;2024-01-15T15:22:36;8.00;94.10
49549;DHT22;35450;44.518;7.466;2024-01-15T15:25:40;8.10;94.10
49549;DHT22;35450;44.518;7.466;2024-01-15T15:28:47;8.20;93.90
49549;DHT22;35450;44.518;7.466;2024-01-15T15:31:51;8.20;93.90
49549;DHT22;35450;44.518;7.466;2024-01-15T15:34:55;8.10;94.00
49549;DHT22;35450;44.518;7.466;2024-01-15T15:37:59;8.10;94.10
49549;DHT22;35450;44.518;7.466;2024-01-15T15:41:03;8.00;94.30
49549;DHT22;35450;44.518;7.466;2024-01-15T15:44:08;7.90;94.30
49549;DHT22;35450;44.518;7.466;2024-01-15T15:47:13;7.90;94.40
49549;DHT22;35450;44.518;7.466;2024-01-15T15:50:20;7.70;94.60
49549;DHT22;35450;44.518;7.466;2024-01-15T15:53:25;7.50;95.10
49549;DHT22;35450;44.518;7.466;2024-01-15T15:56:29;7.40;95.10
49549;DHT22;35450;44.518;7.466;2024-01-15T15:59:36;7.40;95.10
49549;DHT22;35450;44.518;7.466;2024-01-15T16:02:40;7.40;95.10
49549;DHT22;35450;44.518;7.466;2024-01-15T16:05:45;7.30;95.00
49549;DHT22;35450;44.518;7.466;2024-01-15T16:08:49;7.30;95.00
49549;DHT22;35450;44.518;7.466;2024-01-15T16:11:53;7.20;95.00
49549;DHT22;35450;44.518;7.466;2024-01-15T16:15:00;7.20;95.10
49549;DHT22;35450;44.518;7.466;2024-01-15T16:18:04;7.30;95.10
49549;DHT22;35450;44.518;7.466;2024-01-15T16:21:08;7.30;95.20
49549;DHT22;35450;44.518;7.466;2024-01-15T16:24:12;7.30;95.20
49549;DHT22;35450;44.518;7.466;2024-01-15T16:27:17;7.30;95.10
49549;DHT22;35450;44.518;7.466;2024-01-15T16:30:21;7.30;95.10
49549;DHT22;35450;44.518;7.466;2024-01-15T16:33:25;7.30;95.10
49549;DHT22;35450;44.518;7.466;2024-01-15T16:36:29;7.00;95.00
49549;DHT22;35450;44.518;7.466;2024-01-15T16:39:32;7.00;95.60
49549;DHT22;35450;44.518;7.466;2024-01-15T16:42:37;6.70;95.50
49549;DHT22;35450;44.518;7.466;2024-01-15T16:45:41;6.80;95.60
49549;DHT22;35450;44.518;7.466;2024-01-15T16:48:45;6.70;95.70
49549;DHT22;35450;44.518;7.466;2024-01-15T16:51:49;6.70;96.10
49549;DHT22;35450;44.518;7.466;2024-01-15T16:54:53;6.80;95.80
49549;DHT22;35450;44.518;7.466;2024-01-15T16:57:57;6.80;95.40
49549;DHT22;35450;44.518;7.466;2024-01-15T17:01:01;6.70;95.50
49549;DHT22;35450;44.518;7.466;2024-01-15T17:04:06;6.70;95.50
49549;DHT22;35450;44.518;7.466;2024-01-15T17:07:09;6.80;95.50
49549;DHT22;35450;44.518;7.466;2024-01-15T17:10:14;6.70;95.50
49549;DHT22;35450;44.518;7.466;2024-01-15T17:13:19;6.80;95.40
49549;DHT22;35450;44.518;7.466;2024-01-15T17:16:23;6.60;95.20
49549;DHT22;35450;44.518;7.466;2024-01-15T17:19:27;6.80;95.30
49549;DHT22;35450;44.518;7.466;2024-01-15T17:22:31;6.80;95.00
49549;DHT22;35450;44.518;7.466;2024-01-15T17:25:35;6.70;95.00
49549;DHT22;35450;44.518;7.466;2024-01-15T17:28:40;6.50;95.10
49549;DHT22;35450;44.518;7.466;2024-01-15T17:31:45;6.70;95.60
49549;DHT22;35450;44.518;7.466;2024-01-15T17:34:52;6.80;95.50
49549;DHT22;35450;44.518;7.466;2024-01-15T17:37:57;6.90;95.20
49549;DHT22;35450;44.518;7.466;2024-01-15T17:41:01;6.90;95.20
49549;DHT22;35450;44.518;7.466;2024-01-15T17:44:05;6.90;95.10
49549;DHT22;35450;44.518;7.466;2024-01-15T17:47:09;6.80;94.50
49549;DHT22;35450;44.518;7.466;2024-01-15T17:50:13;6.80;94.50
49549;DHT22;35450;44.518;7.466;2024-01-15T17:53:17;6.90;94.50
49549;DHT22;35450;44.518;7.466;2024-01-15T17:56:28;7.00;93.80
49549;DHT22;35450;44.518;7.466;2024-01-15T17:59:33;6.90;93.90
49549;DHT22;35450;44.518;7.466;2024-01-15T18:02:37;7.00;93.90
49549;DHT22;35450;44.518;7.466;2024-01-15T18:05:41;7.00;93.60
49549;DHT22;35450;44.518;7.466;2024-01-15T18:08:45;7.10;92.90
49549;DHT22;35450;44.518;7.466;2024-01-15T18:11:49;7.10;93.00
49549;DHT22;35450;44.518;7.466;2024-01-15T18:14:53;7.20;93.00
49549;DHT22;35450;44.518;7.466;2024-01-15T18:17:58;7.20;93.00
49549;DHT22;35450;44.518;7.466;2024-01-15T18:21:02;7.10;93.20
49549;DHT22;35450;44.518;7.466;2024-01-15T18:24:07;7.10;92.90
49549;DHT22;35450;44.518;7.466;2024-01-15T18:27:12;7.00;93.20
49549;DHT22;35450;44.518;7.466;2024-01-15T18:30:19;6.90;93.40
49549;DHT22;35450;44.518;7.466;2024-01-15T18:33:22;6.90;93.30
49549;DHT22;35450;44.518;7.466;2024-01-15T18:36:27;6.90;93.40
49549;DHT22;35450;44.518;7.466;2024-01-15T18:39:33;6.90;93.30
49549;DHT22;35450;44.518;7.466;2024-01-15T18:42:37;6.90;93.40
49549;DHT22;35450;44.518;7.466;2024-01-15T18:45:44;6.90;93.20
49549;DHT22;35450;44.518;7.466;2024-01-15T18:48:49;6.80;93.20
49549;DHT22;35450;44.518;7.466;2024-01-15T18:51:53;6.80;93.20
49549;DHT22;35450;44.518;7.466;2024-01-15T18:54:59;6.80;93.40
49549;DHT22;35450;44.518;7.466;2024-01-15T18:58:06;6.80;93.30
49549;DHT22;35450;44.518;7.466;2024-01-15T19:01:10;6.70;93.10
49549;DHT22;35450;44.518;7.466;2024-01-15T19:04:15;6.70;93.10
49549;DHT22;35450;44.518;7.466;2024-01-15T19:07:19;6.70;93.00
49549;DHT22;35450;44.518;7.466;2024-01-15T19:10:26;6.60;92.90
49549;DHT22;35450;44.518;7.466;2024-01-15T19:13:30;6.70;92.50
49549;DHT22;35450;44.518;7.466;2024-01-15T19:16:34;6.90;92.10
49549;DHT22;35450;44.518;7.466;2024-01-15T19:19:38;6.80;92.00
49549;DHT22;35450;44.518;7.466;2024-01-15T19:22:42;6.90;91.70
49549;DHT22;35450;44.518;7.466;2024-01-15T19:25:47;6.90;91.80
49549;DHT22;35450;44.518;7.466;2024-01-15T19:28:51;6.80;91.80
49549;DHT22;35450;44.518;7.466;2024-01-15T19:31:55;6.80;92.00
49549;DHT22;35450;44.518;7.466;2024-01-15T19:35:02;6.80;91.80
49549;DHT22;35450;44.518;7.466;2024-01-15T19:38:06;6.80;91.80
49549;DHT22;35450;44.518;7.466;2024-01-15T19:41:10;6.90;91.80
49549;DHT22;35450;44.518;7.466;2024-01-15T19:44:14;6.80;91.60
49549;DHT22;35450;44.518;7.466;2024-01-15T19:47:18;6.90;91.60